Knight Air Virtual Airline

KNIGHT AIR knights of the virtual airways




 METAR AND TAF INFORMATION
METAR FOR HEGN
ADDS - METARS form results

(0129 UTC 17 December 2018)
Data provider http://aviationweather.gov/metar/data/
 
Forecast for: HEGN (HURGUADA , EG)
Text: TAF HEGN 162300Z 1700/1806 31014KT CAVOK
Forecast period: 0000 UTC 17 December 2018 to 0600 UTC 18 December 2018
Forecast type: FROM: standard forecast or significant change
Winds: from the NW (310 degrees) at 16 MPH (14 knots; 7.2 m/s)
Visibility: 6 or more miles 10+ km)
Ceiling: unknown
Clouds: missing
Weather: NSW  (no significant weather)

 AIRPORT MAP

 RUNWAY INFORMATION
Runway 16 Runway length 13124 ft Runway width 148 ft
Runway elevation 50 ft Runway displaced threshold 985 ft Runway heading 165
Runway 34 Runway length 13124 ft Runway width 148 ft
Runway elevation 35 ft Runway displaced threshold 0 ft Runway heading 345

 AIRPORT FREQUENCIES
Type APP Name RADAR Frequency 123.4 MHZ
Type GND Name GND Frequency 121.9 MHZ
Type RDO Name RDO Frequency 585.9 MHZ
Type TWR Name TWR Frequency 119.6 MHZ

 AIRPORT NEAR NAVIGATION AIDS
Type VOR-DME Name Hurghada Frequency 116500 KHZ